sensor_id;sensor_type;location;lat;lon;timestamp;pressure;altitude;pressure_sealevel;temperature;humidity
72423;BME280;60413;55.658;37.498;2023-03-17T00:00:46;98836.13;;;0.15;100.00
72423;BME280;60413;55.658;37.498;2023-03-17T00:04:04;98899.63;;;0.64;100.00
72423;BME280;60413;55.658;37.498;2023-03-17T00:07:04;98836.94;;;0.15;100.00
72423;BME280;60413;55.658;37.498;2023-03-17T00:10:56;98844.53;;;0.17;100.00
72423;BME280;60413;55.658;37.498;2023-03-17T00:14:21;98858.66;;;0.29;100.00
72423;BME280;60413;55.658;37.498;2023-03-17T00:20:56;98890.84;;;0.35;100.00
72423;BME280;60413;55.658;37.498;2023-03-17T00:24:25;98878.25;;;0.32;100.00
72423;BME280;60413;55.658;37.498;2023-03-17T00:27:32;98833.34;;;0.02;100.00
72423;BME280;60413;55.658;37.498;2023-03-17T00:30:10;98857.31;;;0.18;100.00
72423;BME280;60413;55.658;37.498;2023-03-17T00:32:43;98821.81;;;-0.11;100.00
72423;BME280;60413;55.658;37.498;2023-03-17T00:35:24;98818.66;;;-0.21;100.00
72423;BME280;60413;55.658;37.498;2023-03-17T00:41:15;98903.31;;;0.16;100.00
72423;BME280;60413;55.658;37.498;2023-03-17T00:44:13;98852.03;;;-0.03;100.00
72423;BME280;60413;55.658;37.498;2023-03-17T00:47:23;98828.22;;;-0.22;100.00
72423;BME280;60413;55.658;37.498;2023-03-17T00:56:32;98825.16;;;-0.25;100.00
72423;BME280;60413;55.658;37.498;2023-03-17T01:02:22;98868.47;;;0.04;100.00
72423;BME280;60413;55.658;37.498;2023-03-17T01:05:19;98913.53;;;0.33;100.00
72423;BME280;60413;55.658;37.498;2023-03-17T01:11:04;98924.72;;;0.18;100.00
72423;BME280;60413;55.658;37.498;2023-03-17T01:20:03;98866.78;;;-0.27;100.00
72423;BME280;60413;55.658;37.498;2023-03-17T01:25:54;98895.19;;;-0.19;100.00
72423;BME280;60413;55.658;37.498;2023-03-17T01:38:38;98919.78;;;-0.14;100.00
72423;BME280;60413;55.658;37.498;2023-03-17T01:42:23;98917.53;;;-0.17;100.00
72423;BME280;60413;55.658;37.498;2023-03-17T01:48:03;98998.47;;;0.31;100.00
72423;BME280;60413;55.658;37.498;2023-03-17T01:50:32;98995.25;;;0.29;100.00
72423;BME280;60413;55.658;37.498;2023-03-17T01:53:36;98999.16;;;0.25;100.00
72423;BME280;60413;55.658;37.498;2023-03-17T01:56:27;98907.16;;;-0.41;100.00
72423;BME280;60413;55.658;37.498;2023-03-17T01:59:54;99039.72;;;0.17;100.00
72423;BME280;60413;55.658;37.498;2023-03-17T02:02:43;99027.72;;;0.16;100.00
72423;BME280;60413;55.658;37.498;2023-03-17T02:11:23;98970.25;;;-0.33;100.00
72423;BME280;60413;55.658;37.498;2023-03-17T02:14:28;98995.91;;;-0.24;100.00
72423;BME280;60413;55.658;37.498;2023-03-17T02:30:15;99007.94;;;-0.31;100.00
72423;BME280;60413;55.658;37.498;2023-03-17T02:33:09;99086.47;;;0.24;100.00
72423;BME280;60413;55.658;37.498;2023-03-17T02:35:50;99010.19;;;-0.28;100.00
72423;BME280;60413;55.658;37.498;2023-03-17T02:39:09;99100.34;;;0.31;100.00
72423;BME280;60413;55.658;37.498;2023-03-17T02:41:48;99018.47;;;-0.32;100.00
72423;BME280;60413;55.658;37.498;2023-03-17T02:47:43;99048.75;;;-0.33;100.00
72423;BME280;60413;55.658;37.498;2023-03-17T03:11:10;99127.94;;;-0.07;100.00
72423;BME280;60413;55.658;37.498;2023-03-17T03:40:37;99117.41;;;-0.45;100.00
72423;BME280;60413;55.658;37.498;2023-03-17T03:57:02;99222.13;;;0.08;100.00
72423;BME280;60413;55.658;37.498;2023-03-17T03:59:37;99162.25;;;-0.45;100.00
72423;BME280;60413;55.658;37.498;2023-03-17T04:02:09;99203.56;;;-0.12;100.00
72423;BME280;60413;55.658;37.498;2023-03-17T04:04:56;99249.34;;;0.12;100.00
72423;BME280;60413;55.658;37.498;2023-03-17T04:08:32;99242.03;;;0.16;100.00
72423;BME280;60413;55.658;37.498;2023-03-17T04:11:24;99181.78;;;-0.34;100.00
72423;BME280;60413;55.658;37.498;2023-03-17T04:14:31;99209.28;;;-0.25;100.00
72423;BME280;60413;55.658;37.498;2023-03-17T04:21:07;99277.69;;;0.14;100.00
72423;BME280;60413;55.658;37.498;2023-03-17T04:24:07;99193.75;;;-0.33;100.00
72423;BME280;60413;55.658;37.498;2023-03-17T04:26:37;99246.66;;;-0.19;100.00
72423;BME280;60413;55.658;37.498;2023-03-17T04:29:19;99285.28;;;0.15;100.00
72423;BME280;60413;55.658;37.498;2023-03-17T04:31:49;99253.16;;;-0.15;100.00
72423;BME280;60413;55.658;37.498;2023-03-17T04:46:58;99240.88;;;-0.46;100.00
72423;BME280;60413;55.658;37.498;2023-03-17T04:49:38;99289.91;;;-0.20;100.00
72423;BME280;60413;55.658;37.498;2023-03-17T04:52:20;99281.81;;;-0.25;100.00
72423;BME280;60413;55.658;37.498;2023-03-17T04:55:56;99298.31;;;-0.17;100.00
72423;BME280;60413;55.658;37.498;2023-03-17T04:58:53;99359.44;;;0.33;100.00
72423;BME280;60413;55.658;37.498;2023-03-17T05:01:23;99274.06;;;-0.33;100.00
72423;BME280;60413;55.658;37.498;2023-03-17T05:03:59;99293.44;;;-0.21;100.00
72423;BME280;60413;55.658;37.498;2023-03-17T05:06:26;99362.53;;;0.20;100.00
72423;BME280;60413;55.658;37.498;2023-03-17T05:08:58;99335.19;;;0.01;100.00
72423;BME280;60413;55.658;37.498;2023-03-17T05:18:30;99390.38;;;0.43;100.00
72423;BME280;60413;55.658;37.498;2023-03-17T05:20:59;99374.69;;;0.20;100.00
72423;BME280;60413;55.658;37.498;2023-03-17T06:58:30;99499.84;;;1.73;100.00
72423;BME280;60413;55.658;37.498;2023-03-17T07:00:59;99480.06;;;1.72;100.00
72423;BME280;60413;55.658;37.498;2023-03-17T07:06:18;99532.00;;;2.03;100.00
72423;BME280;60413;55.658;37.498;2023-03-17T07:12:12;99567.53;;;2.11;100.00
72423;BME280;60413;55.658;37.498;2023-03-17T07:15:28;99561.72;;;2.32;100.00
72423;BME280;60413;55.658;37.498;2023-03-17T07:23:51;99571.03;;;2.50;100.00
72423;BME280;60413;55.658;37.498;2023-03-17T07:29:29;99528.31;;;2.21;100.00
72423;BME280;60413;55.658;37.498;2023-03-17T07:32:38;99595.66;;;3.00;100.00
72423;BME280;60413;55.658;37.498;2023-03-17T08:22:30;99649.41;;;4.42;100.00
72423;BME280;60413;55.658;37.498;2023-03-17T08:24:58;99658.22;;;4.04;100.00
72423;BME280;60413;55.658;37.498;2023-03-17T08:30:44;99693.53;;;4.37;100.00
72423;BME280;60413;55.658;37.498;2023-03-17T08:33:27;99673.03;;;4.55;100.00
72423;BME280;60413;55.658;37.498;2023-03-17T08:36:07;99724.16;;;5.08;100.00
72423;BME280;60413;55.658;37.498;2023-03-17T08:38:41;99701.69;;;4.49;100.00
72423;BME280;60413;55.658;37.498;2023-03-17T08:41:16;99728.66;;;4.19;100.00
72423;BME280;60413;55.658;37.498;2023-03-17T08:44:04;99681.81;;;3.96;100.00
72423;BME280;60413;55.658;37.498;2023-03-17T08:46:36;99682.78;;;3.80;100.00
72423;BME280;60413;55.658;37.498;2023-03-17T08:49:17;99701.72;;;4.92;100.00
72423;BME280;60413;55.658;37.498;2023-03-17T08:54:27;99723.06;;;5.17;100.00
72423;BME280;60413;55.658;37.498;2023-03-17T09:02:41;99718.88;;;6.07;100.00
72423;BME280;60413;55.658;37.498;2023-03-17T09:05:17;99776.09;;;6.59;100.00
72423;BME280;60413;55.658;37.498;2023-03-17T09:08:26;99754.19;;;6.18;100.00
72423;BME280;60413;55.658;37.498;2023-03-17T09:11:03;99707.47;;;5.30;100.00
72423;BME280;60413;55.658;37.498;2023-03-17T09:13:40;99758.88;;;6.01;100.00
72423;BME280;60413;55.658;37.498;2023-03-17T09:16:40;99710.00;;;4.95;100.00
72423;BME280;60413;55.658;37.498;2023-03-17T09:19:09;99730.09;;;4.95;100.00
72423;BME280;60413;55.658;37.498;2023-03-17T09:25:24;99725.13;;;5.00;100.00
72423;BME280;60413;55.658;37.498;2023-03-17T09:28:03;99680.22;;;4.32;100.00
72423;BME280;60413;55.658;37.498;2023-03-17T09:36:49;99695.00;;;4.10;100.00
72423;BME280;60413;55.658;37.498;2023-03-17T09:40:06;99751.88;;;4.66;100.00
72423;BME280;60413;55.658;37.498;2023-03-17T09:55:54;99761.91;;;3.87;100.00
72423;BME280;60413;55.658;37.498;2023-03-17T09:59:49;99701.03;;;3.95;100.00
72423;BME280;60413;55.658;37.498;2023-03-17T10:16:19;99812.66;;;3.62;100.00
72423;BME280;60413;55.658;37.498;2023-03-17T10:22:28;99763.56;;;3.27;100.00
72423;BME280;60413;55.658;37.498;2023-03-17T10:25:17;99837.69;;;3.48;100.00
72423;BME280;60413;55.658;37.498;2023-03-17T10:40:42;99759.13;;;2.58;100.00
72423;BME280;60413;55.658;37.498;2023-03-17T10:43:48;99781.44;;;3.07;100.00
72423;BME280;60413;55.658;37.498;2023-03-17T10:46:55;99849.19;;;3.77;100.00
72423;BME280;60413;55.658;37.498;2023-03-17T10:49:38;99812.72;;;3.53;100.00
72423;BME280;60413;55.658;37.498;2023-03-17T10:58:51;99779.84;;;3.06;100.00
72423;BME280;60413;55.658;37.498;2023-03-17T11:08:45;99791.81;;;3.15;100.00
72423;BME280;60413;55.658;37.498;2023-03-17T11:19:10;99841.94;;;3.87;100.00
72423;BME280;60413;55.658;37.498;2023-03-17T11:25:27;99865.50;;;3.94;100.00
72423;BME280;60413;55.658;37.498;2023-03-17T11:32:39;99847.47;;;4.07;100.00
72423;BME280;60413;55.658;37.498;2023-03-17T11:35:29;99874.66;;;4.42;100.00
72423;BME280;60413;55.658;37.498;2023-03-17T11:38:32;99866.91;;;4.34;100.00
72423;BME280;60413;55.658;37.498;2023-03-17T12:03:30;99864.94;;;4.21;100.00
72423;BME280;60413;55.658;37.498;2023-03-17T12:06:14;99831.69;;;3.85;100.00
72423;BME280;60413;55.658;37.498;2023-03-17T12:08:56;99867.47;;;4.15;100.00
72423;BME280;60413;55.658;37.498;2023-03-17T12:12:08;99893.13;;;4.41;100.00
72423;BME280;60413;55.658;37.498;2023-03-17T12:14:47;99913.09;;;4.34;100.00
72423;BME280;60413;55.658;37.498;2023-03-17T12:17:38;99872.56;;;4.08;100.00
72423;BME280;60413;55.658;37.498;2023-03-17T12:24:08;99906.66;;;4.59;100.00
72423;BME280;60413;55.658;37.498;2023-03-17T12:27:24;99903.03;;;4.90;100.00
72423;BME280;60413;55.658;37.498;2023-03-17T12:44:59;99932.53;;;4.31;100.00
72423;BME280;60413;55.658;37.498;2023-03-17T13:07:22;99942.38;;;4.59;100.00
72423;BME280;60413;55.658;37.498;2023-03-17T13:18:44;99953.75;;;4.28;100.00
72423;BME280;60413;55.658;37.498;2023-03-17T13:21:18;99918.06;;;4.05;100.00
72423;BME280;60413;55.658;37.498;2023-03-17T13:32:35;99906.63;;;3.92;100.00
72423;BME280;60413;55.658;37.498;2023-03-17T13:53:10;99914.22;;;3.78;100.00
72423;BME280;60413;55.658;37.498;2023-03-17T14:02:30;99959.19;;;4.03;100.00
72423;BME280;60413;55.658;37.498;2023-03-17T14:05:07;99994.53;;;4.06;100.00
72423;BME280;60413;55.658;37.498;2023-03-17T14:07:47;99944.34;;;3.58;100.00
72423;BME280;60413;55.658;37.498;2023-03-17T14:10:24;99971.31;;;3.65;100.00
72423;BME280;60413;55.658;37.498;2023-03-17T14:13:28;100002.75;;;3.95;100.00
72423;BME280;60413;55.658;37.498;2023-03-17T14:16:55;99959.25;;;3.64;100.00
72423;BME280;60413;55.658;37.498;2023-03-17T14:20:02;99930.88;;;3.46;100.00
72423;BME280;60413;55.658;37.498;2023-03-17T14:22:48;99999.03;;;3.66;100.00
72423;BME280;60413;55.658;37.498;2023-03-17T14:25:24;99928.94;;;3.08;100.00
72423;BME280;60413;55.658;37.498;2023-03-17T14:27:56;99938.72;;;3.06;100.00
72423;BME280;60413;55.658;37.498;2023-03-17T14:30:38;99941.81;;;3.02;100.00
72423;BME280;60413;55.658;37.498;2023-03-17T14:33:46;100012.19;;;3.33;100.00
72423;BME280;60413;55.658;37.498;2023-03-17T14:37:09;100025.38;;;3.40;100.00
72423;BME280;60413;55.658;37.498;2023-03-17T14:46:14;100025.75;;;3.20;100.00
72423;BME280;60413;55.658;37.498;2023-03-17T15:06:24;99975.78;;;2.19;100.00
72423;BME280;60413;55.658;37.498;2023-03-17T15:08:55;99972.53;;;2.09;100.00
72423;BME280;60413;55.658;37.498;2023-03-17T15:11:40;99997.56;;;2.18;100.00
72423;BME280;60413;55.658;37.498;2023-03-17T15:14:36;100053.34;;;2.49;100.00
72423;BME280;60413;55.658;37.498;2023-03-17T15:17:53;99981.75;;;1.87;100.00
72423;BME280;60413;55.658;37.498;2023-03-17T15:20:31;100026.00;;;2.12;100.00
72423;BME280;60413;55.658;37.498;2023-03-17T15:23:17;100028.59;;;2.03;100.00
72423;BME280;60413;55.658;37.498;2023-03-17T15:25:53;99980.91;;;1.70;100.00
72423;BME280;60413;55.658;37.498;2023-03-17T15:28:29;100003.34;;;1.71;100.00
72423;BME280;60413;55.658;37.498;2023-03-17T15:31:12;99991.25;;;1.54;100.00
72423;BME280;60413;55.658;37.498;2023-03-17T15:34:17;100042.16;;;1.73;100.00
72423;BME280;60413;55.658;37.498;2023-03-17T15:36:54;100008.59;;;1.45;100.00
72423;BME280;60413;55.658;37.498;2023-03-17T15:39:38;100007.50;;;1.47;100.00
72423;BME280;60413;55.658;37.498;2023-03-17T15:42:12;100012.03;;;1.45;100.00
72423;BME280;60413;55.658;37.498;2023-03-17T15:44:46;100095.34;;;1.95;100.00
72423;BME280;60413;55.658;37.498;2023-03-17T15:47:43;100053.16;;;1.58;100.00
72423;BME280;60413;55.658;37.498;2023-03-17T15:53:14;100018.94;;;1.28;100.00
72423;BME280;60413;55.658;37.498;2023-03-17T15:55:43;100101.81;;;1.82;100.00
72423;BME280;60413;55.658;37.498;2023-03-17T15:58:27;100060.22;;;1.40;100.00
72423;BME280;60413;55.658;37.498;2023-03-17T16:01:11;100062.47;;;1.35;100.00
72423;BME280;60413;55.658;37.498;2023-03-17T16:03:44;100093.47;;;1.62;100.00
72423;BME280;60413;55.658;37.498;2023-03-17T16:06:19;100123.69;;;1.72;100.00
72423;BME280;60413;55.658;37.498;2023-03-17T16:08:52;100049.25;;;1.20;100.00
72423;BME280;60413;55.658;37.498;2023-03-17T16:15:31;100093.63;;;1.35;100.00
72423;BME280;60413;55.658;37.498;2023-03-17T16:21:51;100134.94;;;1.46;100.00
72423;BME280;60413;55.658;37.498;2023-03-17T16:24:32;100104.22;;;1.15;100.00
72423;BME280;60413;55.658;37.498;2023-03-17T16:30:24;100134.78;;;1.21;100.00
72423;BME280;60413;55.658;37.498;2023-03-17T16:33:00;100120.94;;;1.13;100.00
72423;BME280;60413;55.658;37.498;2023-03-17T16:38:48;100079.75;;;0.73;100.00
72423;BME280;60413;55.658;37.498;2023-03-17T16:42:27;100069.63;;;0.62;100.00
72423;BME280;60413;55.658;37.498;2023-03-17T16:46:26;100096.75;;;0.68;100.00
72423;BME280;60413;55.658;37.498;2023-03-17T16:58:23;100176.81;;;0.99;100.00
72423;BME280;60413;55.658;37.498;2023-03-17T17:01:49;100095.72;;;0.43;100.00
72423;BME280;60413;55.658;37.498;2023-03-17T17:04:36;100195.66;;;1.01;100.00
72423;BME280;60413;55.658;37.498;2023-03-17T17:14:00;100200.63;;;0.94;100.00
72423;BME280;60413;55.658;37.498;2023-03-17T17:17:14;100171.19;;;0.67;100.00
72423;BME280;60413;55.658;37.498;2023-03-17T17:23:38;100106.22;;;0.23;100.00
72423;BME280;60413;55.658;37.498;2023-03-17T17:26:32;100111.78;;;0.28;100.00
72423;BME280;60413;55.658;37.498;2023-03-17T17:29:22;100185.31;;;0.73;100.00
72423;BME280;60413;55.658;37.498;2023-03-17T17:32:09;100190.00;;;0.69;100.00
72423;BME280;60413;55.658;37.498;2023-03-17T17:42:01;100121.06;;;0.03;100.00
72423;BME280;60413;55.658;37.498;2023-03-17T18:14:22;100194.63;;;0.02;100.00
72423;BME280;60413;55.658;37.498;2023-03-17T18:26:40;100158.78;;;-0.40;100.00
72423;BME280;60413;55.658;37.498;2023-03-17T18:29:42;100260.97;;;0.23;100.00
72423;BME280;60413;55.658;37.498;2023-03-17T18:32:31;100226.31;;;-0.14;100.00
72423;BME280;60413;55.658;37.498;2023-03-17T18:35:23;100186.41;;;-0.31;100.00
72423;BME280;60413;55.658;37.498;2023-03-17T18:38:12;100278.44;;;0.21;100.00
72423;BME280;60413;55.658;37.498;2023-03-17T18:41:03;100192.72;;;-0.43;100.00
72423;BME280;60413;55.658;37.498;2023-03-17T18:44:13;100185.66;;;-0.51;100.00
72423;BME280;60413;55.658;37.498;2023-03-17T18:46:47;100198.84;;;-0.44;100.00
72423;BME280;60413;55.658;37.498;2023-03-17T18:49:25;100292.25;;;0.11;100.00
72423;BME280;60413;55.658;37.498;2023-03-17T18:55:38;100262.44;;;-0.12;100.00
72423;BME280;60413;55.658;37.498;2023-03-17T18:58:20;100213.84;;;-0.48;100.00
72423;BME280;60413;55.658;37.498;2023-03-17T19:01:21;100261.25;;;-0.28;100.00
72423;BME280;60413;55.658;37.498;2023-03-17T19:08:08;100304.56;;;-0.10;100.00
72423;BME280;60413;55.658;37.498;2023-03-17T19:11:14;100220.84;;;-0.68;100.00
72423;BME280;60413;55.658;37.498;2023-03-17T19:15:14;100236.91;;;-0.54;100.00
72423;BME280;60413;55.658;37.498;2023-03-17T19:21:12;100321.66;;;-0.17;100.00
72423;BME280;60413;55.658;37.498;2023-03-17T19:24:09;100226.97;;;-0.79;100.00
72423;BME280;60413;55.658;37.498;2023-03-17T19:26:57;100230.53;;;-0.80;100.00
72423;BME280;60413;55.658;37.498;2023-03-17T19:29:58;100250.13;;;-0.77;100.00
72423;BME280;60413;55.658;37.498;2023-03-17T19:32:30;100258.84;;;-0.68;100.00
72423;BME280;60413;55.658;37.498;2023-03-17T19:38:53;100224.78;;;-1.03;100.00
72423;BME280;60413;55.658;37.498;2023-03-17T19:50:47;100241.25;;;-1.04;100.00
72423;BME280;60413;55.658;37.498;2023-03-17T19:53:31;100255.31;;;-0.97;100.00
72423;BME280;60413;55.658;37.498;2023-03-17T20:14:24;100283.72;;;-1.16;100.00
72423;BME280;60413;55.658;37.498;2023-03-17T20:24:35;100319.72;;;-0.84;100.00
72423;BME280;60413;55.658;37.498;2023-03-17T20:27:31;100343.72;;;-0.82;100.00
72423;BME280;60413;55.658;37.498;2023-03-17T20:30:30;100294.34;;;-1.19;100.00
72423;BME280;60413;55.658;37.498;2023-03-17T20:33:10;100353.94;;;-0.90;100.00
72423;BME280;60413;55.658;37.498;2023-03-17T20:35:45;100349.16;;;-0.95;100.00
72423;BME280;60413;55.658;37.498;2023-03-17T20:38:19;100258.88;;;-1.48;100.00
72423;BME280;60413;55.658;37.498;2023-03-17T20:44:33;100346.81;;;-0.98;100.00
72423;BME280;60413;55.658;37.498;2023-03-17T20:47:37;100282.44;;;-1.41;100.00
72423;BME280;60413;55.658;37.498;2023-03-17T20:50:32;100301.13;;;-1.28;100.00
72423;BME280;60413;55.658;37.498;2023-03-17T20:53:22;100282.03;;;-1.46;100.00
72423;BME280;60413;55.658;37.498;2023-03-17T20:55:58;100365.75;;;-0.97;100.00
72423;BME280;60413;55.658;37.498;2023-03-17T20:58:26;100318.72;;;-1.22;100.00
72423;BME280;60413;55.658;37.498;2023-03-17T21:07:37;100355.22;;;-1.15;100.00
72423;BME280;60413;55.658;37.498;2023-03-17T21:16:30;100285.63;;;-1.69;100.00
72423;BME280;60413;55.658;37.498;2023-03-17T21:19:44;100342.78;;;-1.31;100.00
72423;BME280;60413;55.658;37.498;2023-03-17T21:22:25;100349.47;;;-1.19;100.00
72423;BME280;60413;55.658;37.498;2023-03-17T21:25:26;100356.13;;;-1.26;100.00
72423;BME280;60413;55.658;37.498;2023-03-17T21:28:15;100328.03;;;-1.50;100.00
72423;BME280;60413;55.658;37.498;2023-03-17T21:31:05;100299.38;;;-1.68;100.00
72423;BME280;60413;55.658;37.498;2023-03-17T21:33:57;100389.53;;;-1.13;100.00
72423;BME280;60413;55.658;37.498;2023-03-17T21:36:46;100396.22;;;-1.10;100.00
72423;BME280;60413;55.658;37.498;2023-03-17T21:39:30;100402.47;;;-1.13;100.00
72423;BME280;60413;55.658;37.498;2023-03-17T21:42:03;100362.34;;;-1.38;100.00
72423;BME280;60413;55.658;37.498;2023-03-17T21:44:32;100292.66;;;-1.71;100.00
72423;BME280;60413;55.658;37.498;2023-03-17T21:47:01;100313.28;;;-1.59;100.00
72423;BME280;60413;55.658;37.498;2023-03-17T21:49:32;100325.91;;;-1.66;100.00
72423;BME280;60413;55.658;37.498;2023-03-17T21:56:25;100412.66;;;-1.21;100.00
72423;BME280;60413;55.658;37.498;2023-03-17T21:58:51;100342.94;;;-1.63;100.00
72423;BME280;60413;55.658;37.498;2023-03-17T22:01:21;100344.78;;;-1.75;100.00
72423;BME280;60413;55.658;37.498;2023-03-17T22:03:50;100339.59;;;-1.75;100.00
72423;BME280;60413;55.658;37.498;2023-03-17T22:06:19;100386.53;;;-1.49;100.00
72423;BME280;60413;55.658;37.498;2023-03-17T22:08:48;100328.78;;;-1.90;100.00
72423;BME280;60413;55.658;37.498;2023-03-17T22:11:36;100366.25;;;-1.75;100.00
72423;BME280;60413;55.658;37.498;2023-03-17T22:14:38;100423.59;;;-1.39;100.00
72423;BME280;60413;55.658;37.498;2023-03-17T22:17:15;100358.31;;;-1.83;100.00
72423;BME280;60413;55.658;37.498;2023-03-17T22:21:04;100420.88;;;-1.37;100.00
72423;BME280;60413;55.658;37.498;2023-03-17T22:23:33;100340.53;;;-1.97;100.00
72423;BME280;60413;55.658;37.498;2023-03-17T22:26:18;100344.47;;;-2.03;100.00
72423;BME280;60413;55.658;37.498;2023-03-17T22:28:46;100352.22;;;-2.03;100.00
72423;BME280;60413;55.658;37.498;2023-03-17T22:31:24;100392.09;;;-1.75;100.00
72423;BME280;60413;55.658;37.498;2023-03-17T22:33:55;100399.16;;;-1.77;100.00
72423;BME280;60413;55.658;37.498;2023-03-17T22:36:24;100428.41;;;-1.55;100.00
72423;BME280;60413;55.658;37.498;2023-03-17T22:38:56;100397.09;;;-1.83;100.00
72423;BME280;60413;55.658;37.498;2023-03-17T22:41:27;100450.41;;;-1.61;100.00
72423;BME280;60413;55.658;37.498;2023-03-17T22:43:54;100440.91;;;-1.60;100.00
72423;BME280;60413;55.658;37.498;2023-03-17T22:46:25;100361.47;;;-2.21;100.00
72423;BME280;60413;55.658;37.498;2023-03-17T22:48:51;100359.13;;;-2.25;100.00
72423;BME280;60413;55.658;37.498;2023-03-17T22:51:24;100377.03;;;-2.12;100.00
72423;BME280;60413;55.658;37.498;2023-03-17T22:53:58;100396.31;;;-1.95;100.00
72423;BME280;60413;55.658;37.498;2023-03-17T22:56:25;100366.75;;;-2.23;100.00
72423;BME280;60413;55.658;37.498;2023-03-17T23:02:49;100370.38;;;-2.26;100.00
72423;BME280;60413;55.658;37.498;2023-03-17T23:06:03;100398.63;;;-2.13;100.00
72423;BME280;60413;55.658;37.498;2023-03-17T23:08:35;100368.25;;;-2.42;100.00
72423;BME280;60413;55.658;37.498;2023-03-17T23:11:07;100427.25;;;-2.05;100.00
72423;BME280;60413;55.658;37.498;2023-03-17T23:13:40;100397.22;;;-2.38;100.00
72423;BME280;60413;55.658;37.498;2023-03-17T23:16:07;100412.63;;;-2.15;100.00
72423;BME280;60413;55.658;37.498;2023-03-17T23:18:38;100428.59;;;-2.10;100.00
72423;BME280;60413;55.658;37.498;2023-03-17T23:21:27;100469.25;;;-1.91;100.00
72423;BME280;60413;55.658;37.498;2023-03-17T23:23:56;100403.50;;;-2.31;100.00
72423;BME280;60413;55.658;37.498;2023-03-17T23:26:39;100406.84;;;-2.40;100.00
72423;BME280;60413;55.658;37.498;2023-03-17T23:29:08;100396.53;;;-2.40;100.00
72423;BME280;60413;55.658;37.498;2023-03-17T23:31:37;100402.28;;;-2.48;100.00
72423;BME280;60413;55.658;37.498;2023-03-17T23:34:29;100479.25;;;-1.98;100.00
72423;BME280;60413;55.658;37.498;2023-03-17T23:36:55;100446.34;;;-2.17;100.00
72423;BME280;60413;55.658;37.498;2023-03-17T23:39:54;100478.00;;;-2.03;100.00
72423;BME280;60413;55.658;37.498;2023-03-17T23:42:21;100451.53;;;-2.28;100.00
72423;BME280;60413;55.658;37.498;2023-03-17T23:44:47;100436.75;;;-2.37;100.00
72423;BME280;60413;55.658;37.498;2023-03-17T23:47:14;100432.78;;;-2.42;100.00
72423;BME280;60413;55.658;37.498;2023-03-17T23:49:48;100496.56;;;-2.10;100.00
72423;BME280;60413;55.658;37.498;2023-03-17T23:52:16;100460.19;;;-2.29;100.00
72423;BME280;60413;55.658;37.498;2023-03-17T23:54:42;100494.66;;;-2.08;100.00
72423;BME280;60413;55.658;37.498;2023-03-17T23:57:08;100503.38;;;-2.09;100.00
72423;BME280;60413;55.658;37.498;2023-03-17T23:59:35;100449.59;;;-2.47;100.00
